sensor_id;sensor_type;location;lat;lon;timestamp;temperature;humidity
67890;DHT22;54685;52.082;5.426;2022-09-21T00:01:22;11.00;99.90
67890;DHT22;54685;52.082;5.426;2022-09-21T00:03:57;11.00;99.90
67890;DHT22;54685;52.082;5.426;2022-09-21T00:06:26;10.90;99.90
67890;DHT22;54685;52.082;5.426;2022-09-21T00:08:54;10.90;99.90
67890;DHT22;54685;52.082;5.426;2022-09-21T00:11:24;10.80;99.90
67890;DHT22;54685;52.082;5.426;2022-09-21T00:13:59;10.80;99.90
67890;DHT22;54685;52.082;5.426;2022-09-21T00:16:27;10.80;99.90
67890;DHT22;54685;52.082;5.426;2022-09-21T00:18:54;10.70;99.90
67890;DHT22;54685;52.082;5.426;2022-09-21T00:21:21;10.70;99.90
67890;DHT22;54685;52.082;5.426;2022-09-21T00:23:49;10.70;99.90
67890;DHT22;54685;52.082;5.426;2022-09-21T00:26:19;10.60;99.90
67890;DHT22;54685;52.082;5.426;2022-09-21T00:28:46;10.50;99.90
67890;DHT22;54685;52.082;5.426;2022-09-21T00:31:15;10.50;99.90
67890;DHT22;54685;52.082;5.426;2022-09-21T00:33:44;10.40;99.90
67890;DHT22;54685;52.082;5.426;2022-09-21T00:36:14;10.30;99.90
67890;DHT22;54685;52.082;5.426;2022-09-21T00:38:43;10.30;99.90
67890;DHT22;54685;52.082;5.426;2022-09-21T00:41:10;10.30;99.90
67890;DHT22;54685;52.082;5.426;2022-09-21T00:43:46;10.20;99.90
67890;DHT22;54685;52.082;5.426;2022-09-21T00:46:26;10.20;99.90
67890;DHT22;54685;52.082;5.426;2022-09-21T00:48:54;10.10;99.90
67890;DHT22;54685;52.082;5.426;2022-09-21T00:51:22;10.10;99.90
67890;DHT22;54685;52.082;5.426;2022-09-21T00:53:53;10.10;99.90
67890;DHT22;54685;52.082;5.426;2022-09-21T00:56:21;10.10;99.90
67890;DHT22;54685;52.082;5.426;2022-09-21T00:58:51;10.10;99.90
67890;DHT22;54685;52.082;5.426;2022-09-21T01:01:21;10.00;99.90
67890;DHT22;54685;52.082;5.426;2022-09-21T01:03:51;10.00;99.90
67890;DHT22;54685;52.082;5.426;2022-09-21T01:06:19;9.90;99.90
67890;DHT22;54685;52.082;5.426;2022-09-21T01:08:49;9.90;99.90
67890;DHT22;54685;52.082;5.426;2022-09-21T01:14:37;9.80;99.90
67890;DHT22;54685;52.082;5.426;2022-09-21T01:17:13;9.80;99.90
67890;DHT22;54685;52.082;5.426;2022-09-21T01:31:14;9.50;99.90
67890;DHT22;54685;52.082;5.426;2022-09-21T01:33:45;9.50;99.90
67890;DHT22;54685;52.082;5.426;2022-09-21T01:36:17;9.50;99.90
67890;DHT22;54685;52.082;5.426;2022-09-21T01:38:52;9.40;99.90
67890;DHT22;54685;52.082;5.426;2022-09-21T01:41:23;9.40;99.90
67890;DHT22;54685;52.082;5.426;2022-09-21T01:43:54;9.40;99.90
67890;DHT22;54685;52.082;5.426;2022-09-21T01:46:28;9.40;99.90
67890;DHT22;54685;52.082;5.426;2022-09-21T01:48:59;9.30;99.90
67890;DHT22;54685;52.082;5.426;2022-09-21T01:51:32;9.40;99.90
67890;DHT22;54685;52.082;5.426;2022-09-21T01:54:26;9.30;99.90
67890;DHT22;54685;52.082;5.426;2022-09-21T01:56:54;9.30;99.90
67890;DHT22;54685;52.082;5.426;2022-09-21T01:59:29;9.30;99.90
67890;DHT22;54685;52.082;5.426;2022-09-21T02:02:03;9.30;99.90
67890;DHT22;54685;52.082;5.426;2022-09-21T02:04:37;9.20;99.90
67890;DHT22;54685;52.082;5.426;2022-09-21T02:07:05;9.20;99.90
67890;DHT22;54685;52.082;5.426;2022-09-21T02:09:36;9.20;99.90
67890;DHT22;54685;52.082;5.426;2022-09-21T02:12:03;9.10;99.90
67890;DHT22;54685;52.082;5.426;2022-09-21T02:14:31;9.10;99.90
67890;DHT22;54685;52.082;5.426;2022-09-21T02:20:16;9.00;99.90
67890;DHT22;54685;52.082;5.426;2022-09-21T02:23:02;9.00;99.90
67890;DHT22;54685;52.082;5.426;2022-09-21T02:28:38;8.90;99.90
67890;DHT22;54685;52.082;5.426;2022-09-21T02:31:17;8.90;99.90
67890;DHT22;54685;52.082;5.426;2022-09-21T02:33:56;8.90;99.90
67890;DHT22;54685;52.082;5.426;2022-09-21T02:36:46;8.80;99.90
67890;DHT22;54685;52.082;5.426;2022-09-21T02:39:20;8.80;99.90
67890;DHT22;54685;52.082;5.426;2022-09-21T02:42:10;8.70;99.90
67890;DHT22;54685;52.082;5.426;2022-09-21T02:44:50;8.70;99.90
67890;DHT22;54685;52.082;5.426;2022-09-21T02:47:24;8.70;99.90
67890;DHT22;54685;52.082;5.426;2022-09-21T02:49:55;8.70;99.90
67890;DHT22;54685;52.082;5.426;2022-09-21T02:52:24;8.70;99.90
67890;DHT22;54685;52.082;5.426;2022-09-21T02:54:52;8.70;99.90
67890;DHT22;54685;52.082;5.426;2022-09-21T02:57:22;8.70;99.90
67890;DHT22;54685;52.082;5.426;2022-09-21T02:59:50;8.60;99.90
67890;DHT22;54685;52.082;5.426;2022-09-21T03:02:17;8.60;99.90
67890;DHT22;54685;52.082;5.426;2022-09-21T03:04:46;8.50;99.90
67890;DHT22;54685;52.082;5.426;2022-09-21T03:07:16;8.50;99.90
67890;DHT22;54685;52.082;5.426;2022-09-21T03:09:43;8.50;99.90
67890;DHT22;54685;52.082;5.426;2022-09-21T03:12:11;8.40;99.90
67890;DHT22;54685;52.082;5.426;2022-09-21T03:14:37;8.40;99.90
67890;DHT22;54685;52.082;5.426;2022-09-21T03:17:04;8.30;99.90
67890;DHT22;54685;52.082;5.426;2022-09-21T03:19:31;8.30;99.90
67890;DHT22;54685;52.082;5.426;2022-09-21T03:21:57;8.20;99.90
67890;DHT22;54685;52.082;5.426;2022-09-21T03:24:25;8.20;99.90
67890;DHT22;54685;52.082;5.426;2022-09-21T03:27:11;8.20;99.90
67890;DHT22;54685;52.082;5.426;2022-09-21T03:29:37;8.20;99.90
67890;DHT22;54685;52.082;5.426;2022-09-21T03:32:04;8.20;99.90
67890;DHT22;54685;52.082;5.426;2022-09-21T03:34:31;8.20;99.90
67890;DHT22;54685;52.082;5.426;2022-09-21T03:37:02;8.20;99.90
67890;DHT22;54685;52.082;5.426;2022-09-21T03:39:30;8.10;99.90
67890;DHT22;54685;52.082;5.426;2022-09-21T03:41:57;8.20;99.90
67890;DHT22;54685;52.082;5.426;2022-09-21T03:44:24;8.10;99.90
67890;DHT22;54685;52.082;5.426;2022-09-21T03:46:52;8.10;99.90
67890;DHT22;54685;52.082;5.426;2022-09-21T03:49:19;8.10;99.90
67890;DHT22;54685;52.082;5.426;2022-09-21T03:51:46;8.10;99.90
67890;DHT22;54685;52.082;5.426;2022-09-21T03:54:13;8.10;99.90
67890;DHT22;54685;52.082;5.426;2022-09-21T03:56:40;8.10;99.90
67890;DHT22;54685;52.082;5.426;2022-09-21T03:59:07;8.10;99.90
67890;DHT22;54685;52.082;5.426;2022-09-21T04:01:39;8.00;99.90
67890;DHT22;54685;52.082;5.426;2022-09-21T04:04:06;8.00;99.90
67890;DHT22;54685;52.082;5.426;2022-09-21T04:06:33;8.00;99.90
67890;DHT22;54685;52.082;5.426;2022-09-21T04:08:59;8.00;99.90
67890;DHT22;54685;52.082;5.426;2022-09-21T04:11:28;8.00;99.90
67890;DHT22;54685;52.082;5.426;2022-09-21T04:13:55;8.00;99.90
67890;DHT22;54685;52.082;5.426;2022-09-21T04:16:23;8.00;99.90
67890;DHT22;54685;52.082;5.426;2022-09-21T04:18:50;8.00;99.90
67890;DHT22;54685;52.082;5.426;2022-09-21T04:21:18;7.90;99.90
67890;DHT22;54685;52.082;5.426;2022-09-21T04:23:48;7.90;99.90
67890;DHT22;54685;52.082;5.426;2022-09-21T04:26:23;7.90;99.90
67890;DHT22;54685;52.082;5.426;2022-09-21T04:28:51;7.90;99.90
67890;DHT22;54685;52.082;5.426;2022-09-21T04:31:18;7.90;99.90
67890;DHT22;54685;52.082;5.426;2022-09-21T04:33:50;7.90;99.90
67890;DHT22;54685;52.082;5.426;2022-09-21T04:36:18;7.80;99.90
67890;DHT22;54685;52.082;5.426;2022-09-21T04:38:48;7.80;99.90
67890;DHT22;54685;52.082;5.426;2022-09-21T04:41:15;7.80;99.90
67890;DHT22;54685;52.082;5.426;2022-09-21T04:43:46;7.70;99.90
67890;DHT22;54685;52.082;5.426;2022-09-21T04:46:18;7.70;99.90
67890;DHT22;54685;52.082;5.426;2022-09-21T04:48:46;7.70;99.90
67890;DHT22;54685;52.082;5.426;2022-09-21T04:51:14;7.70;99.90
67890;DHT22;54685;52.082;5.426;2022-09-21T04:53:42;7.70;99.90
67890;DHT22;54685;52.082;5.426;2022-09-21T04:56:13;7.70;99.90
67890;DHT22;54685;52.082;5.426;2022-09-21T04:58:40;7.70;99.90
67890;DHT22;54685;52.082;5.426;2022-09-21T05:01:07;7.70;99.90
67890;DHT22;54685;52.082;5.426;2022-09-21T05:03:34;7.60;99.90
67890;DHT22;54685;52.082;5.426;2022-09-21T05:06:01;7.60;99.90
67890;DHT22;54685;52.082;5.426;2022-09-21T05:08:31;7.60;99.90
67890;DHT22;54685;52.082;5.426;2022-09-21T05:11:17;7.60;99.90
67890;DHT22;54685;52.082;5.426;2022-09-21T05:13:45;7.50;99.90
67890;DHT22;54685;52.082;5.426;2022-09-21T05:16:13;7.60;99.90
67890;DHT22;54685;52.082;5.426;2022-09-21T05:18:40;7.60;99.90
67890;DHT22;54685;52.082;5.426;2022-09-21T05:21:07;7.50;99.90
67890;DHT22;54685;52.082;5.426;2022-09-21T05:23:35;7.50;99.90
67890;DHT22;54685;52.082;5.426;2022-09-21T05:26:02;7.50;99.90
67890;DHT22;54685;52.082;5.426;2022-09-21T05:28:28;7.50;99.90
67890;DHT22;54685;52.082;5.426;2022-09-21T05:39:01;7.30;99.90
67890;DHT22;54685;52.082;5.426;2022-09-21T05:41:28;7.30;99.90
67890;DHT22;54685;52.082;5.426;2022-09-21T05:43:55;7.30;99.90
67890;DHT22;54685;52.082;5.426;2022-09-21T05:46:58;7.30;99.90
67890;DHT22;54685;52.082;5.426;2022-09-21T06:03:47;7.30;99.90
67890;DHT22;54685;52.082;5.426;2022-09-21T06:06:19;7.30;99.90
67890;DHT22;54685;52.082;5.426;2022-09-21T06:08:46;7.30;99.90
67890;DHT22;54685;52.082;5.426;2022-09-21T06:11:15;7.30;99.90
67890;DHT22;54685;52.082;5.426;2022-09-21T06:13:42;7.30;99.90
67890;DHT22;54685;52.082;5.426;2022-09-21T06:16:09;7.30;99.90
67890;DHT22;54685;52.082;5.426;2022-09-21T06:18:37;7.30;99.90
67890;DHT22;54685;52.082;5.426;2022-09-21T06:21:07;7.40;99.90
67890;DHT22;54685;52.082;5.426;2022-09-21T06:24:00;7.40;99.90
67890;DHT22;54685;52.082;5.426;2022-09-21T06:26:27;7.50;99.90
67890;DHT22;54685;52.082;5.426;2022-09-21T06:28:54;7.50;99.90
67890;DHT22;54685;52.082;5.426;2022-09-21T06:31:25;7.60;99.90
67890;DHT22;54685;52.082;5.426;2022-09-21T06:33:52;7.70;99.90
67890;DHT22;54685;52.082;5.426;2022-09-21T06:36:19;7.70;99.90
67890;DHT22;54685;52.082;5.426;2022-09-21T06:38:46;7.70;99.90
67890;DHT22;54685;52.082;5.426;2022-09-21T06:41:12;7.80;99.90
67890;DHT22;54685;52.082;5.426;2022-09-21T06:43:46;7.80;99.90
67890;DHT22;54685;52.082;5.426;2022-09-21T06:46:13;7.90;99.90
67890;DHT22;54685;52.082;5.426;2022-09-21T06:48:42;8.00;99.90
67890;DHT22;54685;52.082;5.426;2022-09-21T06:51:09;8.00;99.90
67890;DHT22;54685;52.082;5.426;2022-09-21T06:53:39;8.10;99.90
67890;DHT22;54685;52.082;5.426;2022-09-21T06:56:07;8.20;99.90
67890;DHT22;54685;52.082;5.426;2022-09-21T06:58:35;8.30;99.90
67890;DHT22;54685;52.082;5.426;2022-09-21T07:01:08;8.40;99.90
67890;DHT22;54685;52.082;5.426;2022-09-21T07:03:41;8.40;99.90
67890;DHT22;54685;52.082;5.426;2022-09-21T07:06:10;8.50;99.90
67890;DHT22;54685;52.082;5.426;2022-09-21T07:08:37;8.60;99.90
67890;DHT22;54685;52.082;5.426;2022-09-21T07:11:25;8.60;99.90
67890;DHT22;54685;52.082;5.426;2022-09-21T07:13:53;8.70;99.90
67890;DHT22;54685;52.082;5.426;2022-09-21T07:16:20;8.70;99.90
67890;DHT22;54685;52.082;5.426;2022-09-21T07:18:47;8.80;99.90
67890;DHT22;54685;52.082;5.426;2022-09-21T07:21:14;8.80;99.90
67890;DHT22;54685;52.082;5.426;2022-09-21T07:23:42;8.90;99.90
67890;DHT22;54685;52.082;5.426;2022-09-21T07:26:11;9.00;99.90
67890;DHT22;54685;52.082;5.426;2022-09-21T07:28:38;9.10;99.90
67890;DHT22;54685;52.082;5.426;2022-09-21T07:31:11;9.10;99.90
67890;DHT22;54685;52.082;5.426;2022-09-21T07:33:40;9.20;99.90
67890;DHT22;54685;52.082;5.426;2022-09-21T07:36:07;9.20;99.90
67890;DHT22;54685;52.082;5.426;2022-09-21T07:38:43;9.30;99.90
67890;DHT22;54685;52.082;5.426;2022-09-21T07:41:12;9.40;99.90
67890;DHT22;54685;52.082;5.426;2022-09-21T07:43:39;9.40;99.90
67890;DHT22;54685;52.082;5.426;2022-09-21T07:46:09;9.60;99.90
67890;DHT22;54685;52.082;5.426;2022-09-21T07:48:36;9.70;99.90
67890;DHT22;54685;52.082;5.426;2022-09-21T07:51:04;9.80;99.90
67890;DHT22;54685;52.082;5.426;2022-09-21T07:53:36;9.90;99.90
67890;DHT22;54685;52.082;5.426;2022-09-21T07:56:08;10.00;99.90
67890;DHT22;54685;52.082;5.426;2022-09-21T07:58:36;10.10;99.90
67890;DHT22;54685;52.082;5.426;2022-09-21T08:01:22;10.20;99.90
67890;DHT22;54685;52.082;5.426;2022-09-21T08:03:54;10.30;99.90
67890;DHT22;54685;52.082;5.426;2022-09-21T08:06:23;10.40;99.90
67890;DHT22;54685;52.082;5.426;2022-09-21T08:08:50;10.50;99.90
67890;DHT22;54685;52.082;5.426;2022-09-21T08:11:23;10.60;99.90
67890;DHT22;54685;52.082;5.426;2022-09-21T08:13:52;10.60;99.90
67890;DHT22;54685;52.082;5.426;2022-09-21T08:16:19;10.70;99.90
67890;DHT22;54685;52.082;5.426;2022-09-21T08:18:46;10.80;99.90
67890;DHT22;54685;52.082;5.426;2022-09-21T08:21:13;10.90;99.90
67890;DHT22;54685;52.082;5.426;2022-09-21T08:23:40;11.00;99.90
67890;DHT22;54685;52.082;5.426;2022-09-21T08:26:10;11.20;99.90
67890;DHT22;54685;52.082;5.426;2022-09-21T08:28:38;11.30;99.90
67890;DHT22;54685;52.082;5.426;2022-09-21T08:31:07;11.40;99.90
67890;DHT22;54685;52.082;5.426;2022-09-21T08:33:36;11.50;99.90
67890;DHT22;54685;52.082;5.426;2022-09-21T08:36:03;11.50;99.90
67890;DHT22;54685;52.082;5.426;2022-09-21T08:38:32;11.60;99.90
67890;DHT22;54685;52.082;5.426;2022-09-21T08:41:00;11.70;99.90
67890;DHT22;54685;52.082;5.426;2022-09-21T08:43:34;11.80;99.90
67890;DHT22;54685;52.082;5.426;2022-09-21T08:46:08;11.80;99.90
67890;DHT22;54685;52.082;5.426;2022-09-21T08:48:40;11.90;99.90
67890;DHT22;54685;52.082;5.426;2022-09-21T08:51:10;12.00;99.90
67890;DHT22;54685;52.082;5.426;2022-09-21T08:53:47;12.00;99.90
67890;DHT22;54685;52.082;5.426;2022-09-21T08:56:15;12.10;99.90
67890;DHT22;54685;52.082;5.426;2022-09-21T08:58:42;12.20;99.90
67890;DHT22;54685;52.082;5.426;2022-09-21T09:01:43;12.20;99.90
67890;DHT22;54685;52.082;5.426;2022-09-21T09:04:23;12.40;99.90
67890;DHT22;54685;52.082;5.426;2022-09-21T09:17:48;13.20;99.90
67890;DHT22;54685;52.082;5.426;2022-09-21T09:23:01;14.10;99.90
67890;DHT22;54685;52.082;5.426;2022-09-21T09:25:35;14.80;99.90
67890;DHT22;54685;52.082;5.426;2022-09-21T09:31:03;16.00;99.90
67890;DHT22;54685;52.082;5.426;2022-09-21T09:33:45;16.60;99.90
67890;DHT22;54685;52.082;5.426;2022-09-21T09:36:15;17.20;99.90
67890;DHT22;54685;52.082;5.426;2022-09-21T09:39:14;17.50;99.90
67890;DHT22;54685;52.082;5.426;2022-09-21T09:51:00;19.30;94.70
67890;DHT22;54685;52.082;5.426;2022-09-21T09:53:21;19.80;92.20
67890;DHT22;54685;52.082;5.426;2022-09-21T09:55:54;20.10;78.40
67890;DHT22;54685;52.082;5.426;2022-09-21T09:58:46;19.70;81.20
67890;DHT22;54685;52.082;5.426;2022-09-21T10:04:08;20.50;81.30
67890;DHT22;54685;52.082;5.426;2022-09-21T10:06:36;20.90;73.50
67890;DHT22;54685;52.082;5.426;2022-09-21T10:09:32;21.10;67.10
67890;DHT22;54685;52.082;5.426;2022-09-21T10:14:47;21.20;64.90
67890;DHT22;54685;52.082;5.426;2022-09-21T10:17:16;21.50;64.50
67890;DHT22;54685;52.082;5.426;2022-09-21T10:19:44;21.60;62.50
67890;DHT22;54685;52.082;5.426;2022-09-21T10:22:18;21.90;67.70
67890;DHT22;54685;52.082;5.426;2022-09-21T10:24:48;22.10;57.90
67890;DHT22;54685;52.082;5.426;2022-09-21T10:27:25;22.00;60.00
67890;DHT22;54685;52.082;5.426;2022-09-21T10:29:53;22.20;56.10
67890;DHT22;54685;52.082;5.426;2022-09-21T10:32:27;22.30;57.30
67890;DHT22;54685;52.082;5.426;2022-09-21T10:37:40;22.80;53.30
67890;DHT22;54685;52.082;5.426;2022-09-21T10:40:28;22.90;56.10
67890;DHT22;54685;52.082;5.426;2022-09-21T10:42:58;23.20;54.10
67890;DHT22;54685;52.082;5.426;2022-09-21T10:45:30;23.80;53.80
67890;DHT22;54685;52.082;5.426;2022-09-21T10:50:38;24.40;49.40
67890;DHT22;54685;52.082;5.426;2022-09-21T10:55:42;24.10;48.60
67890;DHT22;54685;52.082;5.426;2022-09-21T10:58:30;24.40;47.50
67890;DHT22;54685;52.082;5.426;2022-09-21T11:01:21;24.20;44.90
67890;DHT22;54685;52.082;5.426;2022-09-21T11:04:09;24.40;45.00
67890;DHT22;54685;52.082;5.426;2022-09-21T11:06:41;24.60;44.10
67890;DHT22;54685;52.082;5.426;2022-09-21T11:09:11;24.60;42.90
67890;DHT22;54685;52.082;5.426;2022-09-21T11:11:42;24.80;42.20
67890;DHT22;54685;52.082;5.426;2022-09-21T11:16:54;24.50;41.50
67890;DHT22;54685;52.082;5.426;2022-09-21T11:22:36;24.40;41.30
67890;DHT22;54685;52.082;5.426;2022-09-21T11:31:04;24.40;39.90
67890;DHT22;54685;52.082;5.426;2022-09-21T11:39:13;24.10;44.10
67890;DHT22;54685;52.082;5.426;2022-09-21T11:44:49;22.80;43.70
67890;DHT22;54685;52.082;5.426;2022-09-21T11:47:50;22.30;45.20
67890;DHT22;54685;52.082;5.426;2022-09-21T11:50:52;21.90;45.50
67890;DHT22;54685;52.082;5.426;2022-09-21T11:56:18;21.50;47.60
67890;DHT22;54685;52.082;5.426;2022-09-21T12:07:15;20.90;47.40
67890;DHT22;54685;52.082;5.426;2022-09-21T12:12:39;20.70;47.70
67890;DHT22;54685;52.082;5.426;2022-09-21T12:15:16;20.90;49.20
67890;DHT22;54685;52.082;5.426;2022-09-21T12:18:09;21.00;48.90
67890;DHT22;54685;52.082;5.426;2022-09-21T12:21:00;21.20;48.30
67890;DHT22;54685;52.082;5.426;2022-09-21T12:23:44;21.30;48.00
67890;DHT22;54685;52.082;5.426;2022-09-21T12:26:16;21.20;48.30
67890;DHT22;54685;52.082;5.426;2022-09-21T12:28:47;21.20;48.30
67890;DHT22;54685;52.082;5.426;2022-09-21T12:31:22;21.20;48.60
67890;DHT22;54685;52.082;5.426;2022-09-21T12:33:55;20.80;48.00
67890;DHT22;54685;52.082;5.426;2022-09-21T12:36:43;20.70;48.60
67890;DHT22;54685;52.082;5.426;2022-09-21T12:39:18;20.80;47.50
67890;DHT22;54685;52.082;5.426;2022-09-21T12:41:54;20.70;49.40
67890;DHT22;54685;52.082;5.426;2022-09-21T12:47:38;20.80;50.30
67890;DHT22;54685;52.082;5.426;2022-09-21T12:52:47;20.80;48.00
67890;DHT22;54685;52.082;5.426;2022-09-21T12:58:13;20.80;49.00
67890;DHT22;54685;52.082;5.426;2022-09-21T13:08:49;20.00;51.20
67890;DHT22;54685;52.082;5.426;2022-09-21T13:11:16;19.70;49.90
67890;DHT22;54685;52.082;5.426;2022-09-21T13:13:54;19.60;51.00
67890;DHT22;54685;52.082;5.426;2022-09-21T13:19:01;19.20;50.80
67890;DHT22;54685;52.082;5.426;2022-09-21T13:21:30;19.30;51.50
67890;DHT22;54685;52.082;5.426;2022-09-21T13:23:58;19.40;51.50
67890;DHT22;54685;52.082;5.426;2022-09-21T13:26:36;19.50;51.70
67890;DHT22;54685;52.082;5.426;2022-09-21T13:29:24;19.50;49.60
67890;DHT22;54685;52.082;5.426;2022-09-21T13:32:19;19.40;51.70
67890;DHT22;54685;52.082;5.426;2022-09-21T13:34:46;19.50;50.80
67890;DHT22;54685;52.082;5.426;2022-09-21T13:47:36;19.90;50.80
67890;DHT22;54685;52.082;5.426;2022-09-21T13:52:58;20.10;49.60
67890;DHT22;54685;52.082;5.426;2022-09-21T13:55:30;20.10;48.90
67890;DHT22;54685;52.082;5.426;2022-09-21T13:58:18;20.10;49.60
67890;DHT22;54685;52.082;5.426;2022-09-21T14:08:31;20.20;50.00
67890;DHT22;54685;52.082;5.426;2022-09-21T14:11:04;20.10;51.00
67890;DHT22;54685;52.082;5.426;2022-09-21T14:13:39;20.00;50.80
67890;DHT22;54685;52.082;5.426;2022-09-21T14:19:00;20.00;50.40
67890;DHT22;54685;52.082;5.426;2022-09-21T14:21:28;20.00;50.30
67890;DHT22;54685;52.082;5.426;2022-09-21T14:24:21;19.90;50.40
67890;DHT22;54685;52.082;5.426;2022-09-21T14:26:52;19.90;51.70
67890;DHT22;54685;52.082;5.426;2022-09-21T14:29:38;20.00;50.40
67890;DHT22;54685;52.082;5.426;2022-09-21T14:32:17;20.00;49.30
67890;DHT22;54685;52.082;5.426;2022-09-21T14:34:49;19.90;48.90
67890;DHT22;54685;52.082;5.426;2022-09-21T14:39:55;19.90;50.90
67890;DHT22;54685;52.082;5.426;2022-09-21T14:42:27;19.80;51.20
67890;DHT22;54685;52.082;5.426;2022-09-21T14:45:01;19.70;50.70
67890;DHT22;54685;52.082;5.426;2022-09-21T14:47:45;19.60;50.90
67890;DHT22;54685;52.082;5.426;2022-09-21T14:53:09;19.50;52.90
67890;DHT22;54685;52.082;5.426;2022-09-21T15:00:43;19.60;53.40
67890;DHT22;54685;52.082;5.426;2022-09-21T15:03:32;19.20;49.90
67890;DHT22;54685;52.082;5.426;2022-09-21T15:12:36;19.40;52.00
67890;DHT22;54685;52.082;5.426;2022-09-21T15:18:00;19.20;52.00
67890;DHT22;54685;52.082;5.426;2022-09-21T15:20:29;19.00;53.40
67890;DHT22;54685;52.082;5.426;2022-09-21T15:22:59;18.90;53.30
67890;DHT22;54685;52.082;5.426;2022-09-21T15:25:28;18.90;54.30
67890;DHT22;54685;52.082;5.426;2022-09-21T15:27:55;18.90;54.70
67890;DHT22;54685;52.082;5.426;2022-09-21T15:30:24;18.90;53.70
67890;DHT22;54685;52.082;5.426;2022-09-21T15:32:57;18.90;53.70
67890;DHT22;54685;52.082;5.426;2022-09-21T15:35:27;18.90;52.30
67890;DHT22;54685;52.082;5.426;2022-09-21T15:37:56;18.80;51.40
67890;DHT22;54685;52.082;5.426;2022-09-21T15:40:32;18.70;52.50
67890;DHT22;54685;52.082;5.426;2022-09-21T15:48:11;18.40;53.80
67890;DHT22;54685;52.082;5.426;2022-09-21T15:50:40;18.30;55.50
67890;DHT22;54685;52.082;5.426;2022-09-21T15:53:17;18.30;54.50
67890;DHT22;54685;52.082;5.426;2022-09-21T15:55:48;18.30;57.20
67890;DHT22;54685;52.082;5.426;2022-09-21T16:00:55;18.20;53.10
67890;DHT22;54685;52.082;5.426;2022-09-21T16:03:23;18.10;54.70
67890;DHT22;54685;52.082;5.426;2022-09-21T16:05:53;18.10;54.90
67890;DHT22;54685;52.082;5.426;2022-09-21T16:08:29;18.00;55.30
67890;DHT22;54685;52.082;5.426;2022-09-21T16:22:20;17.80;56.00
67890;DHT22;54685;52.082;5.426;2022-09-21T16:24:53;17.80;58.70
67890;DHT22;54685;52.082;5.426;2022-09-21T16:27:23;17.70;58.20
67890;DHT22;54685;52.082;5.426;2022-09-21T16:29:53;17.70;56.60
67890;DHT22;54685;52.082;5.426;2022-09-21T16:32:38;17.70;56.60
67890;DHT22;54685;52.082;5.426;2022-09-21T16:35:26;17.60;57.10
67890;DHT22;54685;52.082;5.426;2022-09-21T16:37:57;17.40;61.20
67890;DHT22;54685;52.082;5.426;2022-09-21T16:40:25;17.40;66.80
67890;DHT22;54685;52.082;5.426;2022-09-21T16:42:54;17.30;76.00
67890;DHT22;54685;52.082;5.426;2022-09-21T16:45:28;17.20;70.30
67890;DHT22;54685;52.082;5.426;2022-09-21T16:47:59;17.30;67.00
67890;DHT22;54685;52.082;5.426;2022-09-21T16:50:28;17.30;66.50
67890;DHT22;54685;52.082;5.426;2022-09-21T16:52:54;17.20;67.00
67890;DHT22;54685;52.082;5.426;2022-09-21T16:55:21;17.20;71.60
67890;DHT22;54685;52.082;5.426;2022-09-21T16:57:54;17.10;76.70
67890;DHT22;54685;52.082;5.426;2022-09-21T17:00:21;17.10;76.60
67890;DHT22;54685;52.082;5.426;2022-09-21T17:02:48;17.00;76.70
67890;DHT22;54685;52.082;5.426;2022-09-21T17:05:15;17.00;74.40
67890;DHT22;54685;52.082;5.426;2022-09-21T17:07:53;17.00;76.00
67890;DHT22;54685;52.082;5.426;2022-09-21T17:10:23;16.90;76.20
67890;DHT22;54685;52.082;5.426;2022-09-21T17:12:55;16.90;78.50
67890;DHT22;54685;52.082;5.426;2022-09-21T17:15:22;16.80;83.70
67890;DHT22;54685;52.082;5.426;2022-09-21T17:17:50;16.70;89.60
67890;DHT22;54685;52.082;5.426;2022-09-21T17:20:36;16.50;91.50
67890;DHT22;54685;52.082;5.426;2022-09-21T17:23:04;16.40;94.30
67890;DHT22;54685;52.082;5.426;2022-09-21T17:25:31;16.30;95.10
67890;DHT22;54685;52.082;5.426;2022-09-21T17:27:59;16.10;96.60
67890;DHT22;54685;52.082;5.426;2022-09-21T17:30:27;16.00;98.50
67890;DHT22;54685;52.082;5.426;2022-09-21T17:32:54;15.90;98.20
67890;DHT22;54685;52.082;5.426;2022-09-21T17:37:57;15.80;99.90
67890;DHT22;54685;52.082;5.426;2022-09-21T17:40:24;15.60;99.90
67890;DHT22;54685;52.082;5.426;2022-09-21T17:42:56;15.50;99.90
67890;DHT22;54685;52.082;5.426;2022-09-21T17:45:52;15.40;99.90
67890;DHT22;54685;52.082;5.426;2022-09-21T17:48:22;15.30;99.90
67890;DHT22;54685;52.082;5.426;2022-09-21T17:50:49;15.20;99.90
67890;DHT22;54685;52.082;5.426;2022-09-21T17:53:16;15.10;99.90
67890;DHT22;54685;52.082;5.426;2022-09-21T17:56:23;15.00;99.90
67890;DHT22;54685;52.082;5.426;2022-09-21T17:58:59;14.90;99.90
67890;DHT22;54685;52.082;5.426;2022-09-21T18:01:37;14.80;99.90
67890;DHT22;54685;52.082;5.426;2022-09-21T18:04:06;14.80;99.90
67890;DHT22;54685;52.082;5.426;2022-09-21T18:06:36;14.70;99.90
67890;DHT22;54685;52.082;5.426;2022-09-21T18:09:03;14.60;99.90
67890;DHT22;54685;52.082;5.426;2022-09-21T18:15:07;14.50;99.90
67890;DHT22;54685;52.082;5.426;2022-09-21T18:25:53;14.10;99.90
67890;DHT22;54685;52.082;5.426;2022-09-21T18:28:41;14.00;99.90
67890;DHT22;54685;52.082;5.426;2022-09-21T18:45:12;13.30;99.90
67890;DHT22;54685;52.082;5.426;2022-09-21T18:50:37;13.30;99.90
67890;DHT22;54685;52.082;5.426;2022-09-21T18:53:29;13.30;99.90
67890;DHT22;54685;52.082;5.426;2022-09-21T18:55:57;13.20;99.90
67890;DHT22;54685;52.082;5.426;2022-09-21T18:58:24;13.20;99.90
67890;DHT22;54685;52.082;5.426;2022-09-21T19:00:51;13.20;99.90
67890;DHT22;54685;52.082;5.426;2022-09-21T19:03:18;13.20;99.90
67890;DHT22;54685;52.082;5.426;2022-09-21T19:06:04;13.20;99.90
67890;DHT22;54685;52.082;5.426;2022-09-21T19:11:19;13.00;99.90
67890;DHT22;54685;52.082;5.426;2022-09-21T19:16:47;12.90;99.90
67890;DHT22;54685;52.082;5.426;2022-09-21T19:19:26;12.90;99.90
67890;DHT22;54685;52.082;5.426;2022-09-21T19:23:07;12.90;99.90
67890;DHT22;54685;52.082;5.426;2022-09-21T19:25:06;12.80;99.90
67890;DHT22;54685;52.082;5.426;2022-09-21T19:27:38;12.70;99.90
67890;DHT22;54685;52.082;5.426;2022-09-21T19:30:12;12.60;99.90
67890;DHT22;54685;52.082;5.426;2022-09-21T19:32:47;12.60;99.90
67890;DHT22;54685;52.082;5.426;2022-09-21T19:35:27;12.50;99.90
67890;DHT22;54685;52.082;5.426;2022-09-21T19:37:56;12.50;99.90
67890;DHT22;54685;52.082;5.426;2022-09-21T19:40:26;12.40;99.90
67890;DHT22;54685;52.082;5.426;2022-09-21T19:48:44;12.30;99.90
67890;DHT22;54685;52.082;5.426;2022-09-21T19:51:22;12.40;99.90
67890;DHT22;54685;52.082;5.426;2022-09-21T19:53:54;12.30;99.90
67890;DHT22;54685;52.082;5.426;2022-09-21T19:56:47;12.10;99.90
67890;DHT22;54685;52.082;5.426;2022-09-21T19:59:33;12.00;99.90
67890;DHT22;54685;52.082;5.426;2022-09-21T20:02:26;12.00;99.90
67890;DHT22;54685;52.082;5.426;2022-09-21T20:10:59;11.70;99.90
67890;DHT22;54685;52.082;5.426;2022-09-21T20:15:46;11.60;99.90
67890;DHT22;54685;52.082;5.426;2022-09-21T20:18:37;11.60;99.90
67890;DHT22;54685;52.082;5.426;2022-09-21T20:21:12;11.70;99.90